sensor_id;sensor_type;location;lat;lon;timestamp;P1;durP1;ratioP1;P2;durP2;ratioP2
3443;SDS011;1736;52.068;6.968;2023-03-13T00:01:25;15.77;;;4.40;;
3443;SDS011;1736;52.068;6.968;2023-03-13T00:03:54;18.73;;;5.80;;
3443;SDS011;1736;52.068;6.968;2023-03-13T00:06:21;16.87;;;4.97;;
3443;SDS011;1736;52.068;6.968;2023-03-13T00:08:50;14.40;;;4.50;;
3443;SDS011;1736;52.068;6.968;2023-03-13T00:11:16;18.60;;;3.90;;
3443;SDS011;1736;52.068;6.968;2023-03-13T00:13:43;22.90;;;5.07;;
3443;SDS011;1736;52.068;6.968;2023-03-13T00:16:11;16.70;;;4.30;;
3443;SDS011;1736;52.068;6.968;2023-03-13T00:18:38;13.00;;;4.93;;
3443;SDS011;1736;52.068;6.968;2023-03-13T00:21:09;19.60;;;5.60;;
3443;SDS011;1736;52.068;6.968;2023-03-13T00:23:36;19.83;;;6.20;;
3443;SDS011;1736;52.068;6.968;2023-03-13T00:26:05;13.17;;;4.50;;
3443;SDS011;1736;52.068;6.968;2023-03-13T00:28:33;22.90;;;5.60;;
3443;SDS011;1736;52.068;6.968;2023-03-13T00:31:01;15.20;;;4.83;;
3443;SDS011;1736;52.068;6.968;2023-03-13T00:33:30;17.13;;;4.80;;
3443;SDS011;1736;52.068;6.968;2023-03-13T00:35:57;21.27;;;5.13;;
3443;SDS011;1736;52.068;6.968;2023-03-13T00:38:24;13.47;;;5.07;;
3443;SDS011;1736;52.068;6.968;2023-03-13T00:40:57;16.67;;;3.90;;
3443;SDS011;1736;52.068;6.968;2023-03-13T00:43:25;22.23;;;4.77;;
3443;SDS011;1736;52.068;6.968;2023-03-13T00:45:52;20.57;;;4.73;;
3443;SDS011;1736;52.068;6.968;2023-03-13T00:48:19;20.60;;;5.27;;
3443;SDS011;1736;52.068;6.968;2023-03-13T00:50:45;22.33;;;4.30;;
3443;SDS011;1736;52.068;6.968;2023-03-13T00:53:12;16.80;;;4.30;;
3443;SDS011;1736;52.068;6.968;2023-03-13T00:55:38;12.30;;;4.50;;
3443;SDS011;1736;52.068;6.968;2023-03-13T00:58:05;16.13;;;5.33;;
3443;SDS011;1736;52.068;6.968;2023-03-13T01:00:33;19.03;;;5.20;;
3443;SDS011;1736;52.068;6.968;2023-03-13T01:02:59;18.23;;;4.60;;
3443;SDS011;1736;52.068;6.968;2023-03-13T01:05:26;17.67;;;4.80;;
3443;SDS011;1736;52.068;6.968;2023-03-13T01:07:54;21.97;;;4.90;;
3443;SDS011;1736;52.068;6.968;2023-03-13T01:10:20;14.33;;;4.70;;
3443;SDS011;1736;52.068;6.968;2023-03-13T01:12:47;26.93;;;5.10;;
3443;SDS011;1736;52.068;6.968;2023-03-13T01:15:13;16.60;;;4.90;;
3443;SDS011;1736;52.068;6.968;2023-03-13T01:17:43;21.73;;;4.80;;
3443;SDS011;1736;52.068;6.968;2023-03-13T01:20:10;15.93;;;4.27;;
3443;SDS011;1736;52.068;6.968;2023-03-13T01:22:37;14.93;;;4.60;;
3443;SDS011;1736;52.068;6.968;2023-03-13T01:25:05;13.10;;;5.10;;
3443;SDS011;1736;52.068;6.968;2023-03-13T01:27:32;22.87;;;4.90;;
3443;SDS011;1736;52.068;6.968;2023-03-13T01:29:59;20.53;;;5.17;;
3443;SDS011;1736;52.068;6.968;2023-03-13T01:32:25;21.63;;;5.07;;
3443;SDS011;1736;52.068;6.968;2023-03-13T01:34:53;16.50;;;4.60;;
3443;SDS011;1736;52.068;6.968;2023-03-13T01:37:20;17.93;;;4.60;;
3443;SDS011;1736;52.068;6.968;2023-03-13T01:39:46;22.57;;;4.70;;
3443;SDS011;1736;52.068;6.968;2023-03-13T01:42:13;22.33;;;5.07;;
3443;SDS011;1736;52.068;6.968;2023-03-13T01:44:49;23.97;;;4.83;;
3443;SDS011;1736;52.068;6.968;2023-03-13T01:47:16;20.03;;;5.30;;
3443;SDS011;1736;52.068;6.968;2023-03-13T01:49:43;17.83;;;5.27;;
3443;SDS011;1736;52.068;6.968;2023-03-13T01:52:13;8.77;;;3.90;;
3443;SDS011;1736;52.068;6.968;2023-03-13T01:54:44;14.30;;;4.23;;
3443;SDS011;1736;52.068;6.968;2023-03-13T01:57:18;15.10;;;4.77;;
3443;SDS011;1736;52.068;6.968;2023-03-13T01:59:49;14.63;;;4.17;;
3443;SDS011;1736;52.068;6.968;2023-03-13T02:02:18;18.97;;;4.83;;
3443;SDS011;1736;52.068;6.968;2023-03-13T02:04:48;24.27;;;5.20;;
3443;SDS011;1736;52.068;6.968;2023-03-13T02:07:20;23.47;;;5.80;;
3443;SDS011;1736;52.068;6.968;2023-03-13T02:09:52;15.77;;;4.93;;
3443;SDS011;1736;52.068;6.968;2023-03-13T02:12:23;21.67;;;6.20;;
3443;SDS011;1736;52.068;6.968;2023-03-13T02:14:55;22.10;;;6.40;;
3443;SDS011;1736;52.068;6.968;2023-03-13T02:17:24;29.77;;;7.20;;
3443;SDS011;1736;52.068;6.968;2023-03-13T02:19:51;17.30;;;6.60;;
3443;SDS011;1736;52.068;6.968;2023-03-13T02:22:21;26.40;;;7.57;;
3443;SDS011;1736;52.068;6.968;2023-03-13T02:24:55;20.73;;;6.73;;
3443;SDS011;1736;52.068;6.968;2023-03-13T02:27:27;23.33;;;8.37;;
3443;SDS011;1736;52.068;6.968;2023-03-13T02:29:54;18.50;;;7.70;;
3443;SDS011;1736;52.068;6.968;2023-03-13T02:32:21;26.63;;;9.23;;
3443;SDS011;1736;52.068;6.968;2023-03-13T02:34:49;24.90;;;8.87;;
3443;SDS011;1736;52.068;6.968;2023-03-13T02:37:19;25.23;;;9.10;;
3443;SDS011;1736;52.068;6.968;2023-03-13T02:39:47;17.40;;;8.40;;
3443;SDS011;1736;52.068;6.968;2023-03-13T02:42:16;19.30;;;9.43;;
3443;SDS011;1736;52.068;6.968;2023-03-13T02:44:46;20.87;;;9.20;;
3443;SDS011;1736;52.068;6.968;2023-03-13T02:47:16;25.70;;;9.00;;
3443;SDS011;1736;52.068;6.968;2023-03-13T02:49:44;21.10;;;9.10;;
3443;SDS011;1736;52.068;6.968;2023-03-13T02:52:12;22.30;;;9.00;;
3443;SDS011;1736;52.068;6.968;2023-03-13T02:54:42;23.87;;;9.40;;
3443;SDS011;1736;52.068;6.968;2023-03-13T02:57:12;23.50;;;9.67;;
3443;SDS011;1736;52.068;6.968;2023-03-13T02:59:39;13.53;;;8.93;;
3443;SDS011;1736;52.068;6.968;2023-03-13T03:02:07;26.43;;;11.07;;
3443;SDS011;1736;52.068;6.968;2023-03-13T03:04:34;18.33;;;10.00;;
3443;SDS011;1736;52.068;6.968;2023-03-13T03:07:00;21.70;;;11.80;;
3443;SDS011;1736;52.068;6.968;2023-03-13T03:09:27;23.80;;;10.77;;
3443;SDS011;1736;52.068;6.968;2023-03-13T03:11:53;22.37;;;11.70;;
3443;SDS011;1736;52.068;6.968;2023-03-13T03:14:20;18.63;;;10.70;;
3443;SDS011;1736;52.068;6.968;2023-03-13T03:16:47;20.10;;;10.27;;
3443;SDS011;1736;52.068;6.968;2023-03-13T03:19:15;13.30;;;8.97;;
3443;SDS011;1736;52.068;6.968;2023-03-13T03:21:41;17.67;;;9.47;;
3443;SDS011;1736;52.068;6.968;2023-03-13T03:24:09;18.37;;;7.67;;
3443;SDS011;1736;52.068;6.968;2023-03-13T03:26:35;12.77;;;7.90;;
3443;SDS011;1736;52.068;6.968;2023-03-13T03:29:02;15.83;;;6.77;;
3443;SDS011;1736;52.068;6.968;2023-03-13T03:31:29;15.63;;;6.60;;
3443;SDS011;1736;52.068;6.968;2023-03-13T03:33:55;13.20;;;6.70;;
3443;SDS011;1736;52.068;6.968;2023-03-13T03:36:24;14.90;;;6.30;;
3443;SDS011;1736;52.068;6.968;2023-03-13T03:38:51;17.50;;;6.77;;
3443;SDS011;1736;52.068;6.968;2023-03-13T03:41:18;8.83;;;5.57;;
3443;SDS011;1736;52.068;6.968;2023-03-13T03:43:45;14.97;;;6.57;;
3443;SDS011;1736;52.068;6.968;2023-03-13T03:46:12;15.10;;;6.63;;
3443;SDS011;1736;52.068;6.968;2023-03-13T03:48:39;15.67;;;6.60;;
3443;SDS011;1736;52.068;6.968;2023-03-13T03:51:06;14.10;;;6.70;;
3443;SDS011;1736;52.068;6.968;2023-03-13T03:53:34;19.07;;;7.50;;
3443;SDS011;1736;52.068;6.968;2023-03-13T03:56:00;21.87;;;6.97;;
3443;SDS011;1736;52.068;6.968;2023-03-13T03:58:27;13.80;;;7.43;;
3443;SDS011;1736;52.068;6.968;2023-03-13T04:00:55;15.90;;;7.30;;
3443;SDS011;1736;52.068;6.968;2023-03-13T04:03:22;13.90;;;6.00;;
3443;SDS011;1736;52.068;6.968;2023-03-13T04:05:49;17.40;;;7.27;;
3443;SDS011;1736;52.068;6.968;2023-03-13T04:08:16;10.70;;;6.23;;
3443;SDS011;1736;52.068;6.968;2023-03-13T04:10:45;11.83;;;6.30;;
3443;SDS011;1736;52.068;6.968;2023-03-13T04:13:11;9.60;;;5.93;;
3443;SDS011;1736;52.068;6.968;2023-03-13T04:15:38;8.77;;;5.60;;
3443;SDS011;1736;52.068;6.968;2023-03-13T04:18:05;9.30;;;5.70;;
3443;SDS011;1736;52.068;6.968;2023-03-13T04:20:32;12.20;;;5.50;;
3443;SDS011;1736;52.068;6.968;2023-03-13T04:22:59;9.63;;;5.87;;
3443;SDS011;1736;52.068;6.968;2023-03-13T04:25:26;17.53;;;7.50;;
3443;SDS011;1736;52.068;6.968;2023-03-13T04:27:54;12.40;;;5.93;;
3443;SDS011;1736;52.068;6.968;2023-03-13T04:30:20;9.87;;;5.70;;
3443;SDS011;1736;52.068;6.968;2023-03-13T04:32:47;12.47;;;5.13;;
3443;SDS011;1736;52.068;6.968;2023-03-13T04:35:15;11.57;;;6.17;;
3443;SDS011;1736;52.068;6.968;2023-03-13T04:37:41;18.10;;;6.53;;
3443;SDS011;1736;52.068;6.968;2023-03-13T04:40:09;8.63;;;5.60;;
3443;SDS011;1736;52.068;6.968;2023-03-13T04:42:36;10.90;;;5.53;;
3443;SDS011;1736;52.068;6.968;2023-03-13T04:45:05;11.70;;;6.87;;
3443;SDS011;1736;52.068;6.968;2023-03-13T04:47:34;5.93;;;5.33;;
3443;SDS011;1736;52.068;6.968;2023-03-13T04:50:01;11.20;;;5.80;;
3443;SDS011;1736;52.068;6.968;2023-03-13T04:52:28;9.80;;;6.37;;
3443;SDS011;1736;52.068;6.968;2023-03-13T04:54:54;8.27;;;5.90;;
3443;SDS011;1736;52.068;6.968;2023-03-13T04:57:21;8.63;;;6.30;;
3443;SDS011;1736;52.068;6.968;2023-03-13T04:59:47;7.43;;;6.17;;
3443;SDS011;1736;52.068;6.968;2023-03-13T05:02:15;8.90;;;5.80;;
3443;SDS011;1736;52.068;6.968;2023-03-13T05:04:42;9.70;;;5.57;;
3443;SDS011;1736;52.068;6.968;2023-03-13T05:07:09;7.70;;;5.47;;
3443;SDS011;1736;52.068;6.968;2023-03-13T05:09:35;14.03;;;6.03;;
3443;SDS011;1736;52.068;6.968;2023-03-13T05:12:02;15.07;;;5.93;;
3443;SDS011;1736;52.068;6.968;2023-03-13T05:14:29;9.87;;;5.63;;
3443;SDS011;1736;52.068;6.968;2023-03-13T05:16:55;7.70;;;5.50;;
3443;SDS011;1736;52.068;6.968;2023-03-13T05:19:23;9.20;;;5.60;;
3443;SDS011;1736;52.068;6.968;2023-03-13T05:21:51;9.50;;;5.03;;
3443;SDS011;1736;52.068;6.968;2023-03-13T05:24:18;7.50;;;4.90;;
3443;SDS011;1736;52.068;6.968;2023-03-13T05:26:44;11.37;;;5.90;;
3443;SDS011;1736;52.068;6.968;2023-03-13T05:29:11;12.20;;;5.90;;
3443;SDS011;1736;52.068;6.968;2023-03-13T05:31:38;8.47;;;6.00;;
3443;SDS011;1736;52.068;6.968;2023-03-13T05:34:04;10.60;;;5.53;;
3443;SDS011;1736;52.068;6.968;2023-03-13T05:36:32;10.57;;;6.07;;
3443;SDS011;1736;52.068;6.968;2023-03-13T05:38:59;10.17;;;6.00;;
3443;SDS011;1736;52.068;6.968;2023-03-13T05:41:25;14.40;;;6.20;;
3443;SDS011;1736;52.068;6.968;2023-03-13T05:43:52;10.00;;;5.93;;
3443;SDS011;1736;52.068;6.968;2023-03-13T05:46:18;11.33;;;6.60;;
3443;SDS011;1736;52.068;6.968;2023-03-13T05:48:45;8.30;;;5.80;;
3443;SDS011;1736;52.068;6.968;2023-03-13T05:51:12;8.87;;;5.90;;
3443;SDS011;1736;52.068;6.968;2023-03-13T05:53:40;9.50;;;6.37;;
3443;SDS011;1736;52.068;6.968;2023-03-13T05:56:06;11.37;;;6.77;;
3443;SDS011;1736;52.068;6.968;2023-03-13T05:58:33;13.17;;;7.10;;
3443;SDS011;1736;52.068;6.968;2023-03-13T06:01:04;14.67;;;8.13;;
3443;SDS011;1736;52.068;6.968;2023-03-13T06:03:31;9.70;;;6.97;;
3443;SDS011;1736;52.068;6.968;2023-03-13T06:05:58;10.20;;;7.33;;
3443;SDS011;1736;52.068;6.968;2023-03-13T06:08:24;13.50;;;7.43;;
3443;SDS011;1736;52.068;6.968;2023-03-13T06:10:53;9.27;;;6.60;;
3443;SDS011;1736;52.068;6.968;2023-03-13T06:13:19;11.00;;;6.80;;
3443;SDS011;1736;52.068;6.968;2023-03-13T06:15:49;10.63;;;7.17;;
3443;SDS011;1736;52.068;6.968;2023-03-13T06:18:17;12.20;;;6.83;;
3443;SDS011;1736;52.068;6.968;2023-03-13T06:20:43;11.53;;;7.50;;
3443;SDS011;1736;52.068;6.968;2023-03-13T06:23:10;12.63;;;6.93;;
3443;SDS011;1736;52.068;6.968;2023-03-13T06:25:36;11.83;;;7.30;;
3443;SDS011;1736;52.068;6.968;2023-03-13T06:28:05;10.80;;;6.73;;
3443;SDS011;1736;52.068;6.968;2023-03-13T06:30:31;13.63;;;7.00;;
3443;SDS011;1736;52.068;6.968;2023-03-13T06:32:58;9.40;;;6.53;;
3443;SDS011;1736;52.068;6.968;2023-03-13T06:35:24;8.37;;;6.37;;
3443;SDS011;1736;52.068;6.968;2023-03-13T06:37:51;11.00;;;6.30;;
3443;SDS011;1736;52.068;6.968;2023-03-13T06:40:18;8.50;;;6.40;;
3443;SDS011;1736;52.068;6.968;2023-03-13T06:42:45;10.60;;;6.57;;
3443;SDS011;1736;52.068;6.968;2023-03-13T06:45:13;10.13;;;6.70;;
3443;SDS011;1736;52.068;6.968;2023-03-13T06:47:40;9.60;;;5.87;;
3443;SDS011;1736;52.068;6.968;2023-03-13T06:50:07;7.57;;;5.87;;
3443;SDS011;1736;52.068;6.968;2023-03-13T06:52:34;7.10;;;5.87;;
3443;SDS011;1736;52.068;6.968;2023-03-13T06:55:02;13.40;;;6.10;;
3443;SDS011;1736;52.068;6.968;2023-03-13T06:57:28;9.43;;;6.63;;
3443;SDS011;1736;52.068;6.968;2023-03-13T06:59:55;11.33;;;5.30;;
3443;SDS011;1736;52.068;6.968;2023-03-13T07:02:23;9.67;;;5.50;;
3443;SDS011;1736;52.068;6.968;2023-03-13T07:04:49;7.50;;;5.23;;
3443;SDS011;1736;52.068;6.968;2023-03-13T07:07:16;10.47;;;5.23;;
3443;SDS011;1736;52.068;6.968;2023-03-13T07:09:42;6.90;;;5.00;;
3443;SDS011;1736;52.068;6.968;2023-03-13T07:12:09;7.93;;;4.80;;
3443;SDS011;1736;52.068;6.968;2023-03-13T07:14:36;11.47;;;5.47;;
3443;SDS011;1736;52.068;6.968;2023-03-13T07:17:03;5.80;;;4.67;;
3443;SDS011;1736;52.068;6.968;2023-03-13T07:19:31;11.90;;;5.10;;
3443;SDS011;1736;52.068;6.968;2023-03-13T07:21:57;9.27;;;4.43;;
3443;SDS011;1736;52.068;6.968;2023-03-13T07:24:24;5.23;;;4.07;;
3443;SDS011;1736;52.068;6.968;2023-03-13T07:26:51;10.33;;;4.33;;
3443;SDS011;1736;52.068;6.968;2023-03-13T07:29:17;11.90;;;5.97;;
3443;SDS011;1736;52.068;6.968;2023-03-13T07:31:44;6.50;;;3.90;;
3443;SDS011;1736;52.068;6.968;2023-03-13T07:34:10;8.80;;;4.33;;
3443;SDS011;1736;52.068;6.968;2023-03-13T07:36:38;6.53;;;4.60;;
3443;SDS011;1736;52.068;6.968;2023-03-13T07:39:06;7.80;;;4.40;;
3443;SDS011;1736;52.068;6.968;2023-03-13T07:41:33;5.00;;;4.10;;
3443;SDS011;1736;52.068;6.968;2023-03-13T07:43:59;6.70;;;3.90;;
3443;SDS011;1736;52.068;6.968;2023-03-13T07:46:26;8.00;;;4.03;;
3443;SDS011;1736;52.068;6.968;2023-03-13T07:48:53;3.90;;;3.50;;
3443;SDS011;1736;52.068;6.968;2023-03-13T07:51:20;6.93;;;4.60;;
3443;SDS011;1736;52.068;6.968;2023-03-13T07:53:49;8.27;;;3.90;;
3443;SDS011;1736;52.068;6.968;2023-03-13T07:56:17;6.70;;;3.83;;
3443;SDS011;1736;52.068;6.968;2023-03-13T07:58:45;4.43;;;4.03;;
3443;SDS011;1736;52.068;6.968;2023-03-13T08:01:13;4.40;;;2.90;;
3443;SDS011;1736;52.068;6.968;2023-03-13T08:03:42;11.93;;;4.00;;
3443;SDS011;1736;52.068;6.968;2023-03-13T08:06:10;8.30;;;4.87;;
3443;SDS011;1736;52.068;6.968;2023-03-13T08:08:40;7.30;;;3.77;;
3443;SDS011;1736;52.068;6.968;2023-03-13T08:11:09;5.83;;;4.27;;
3443;SDS011;1736;52.068;6.968;2023-03-13T08:13:37;7.30;;;3.87;;
3443;SDS011;1736;52.068;6.968;2023-03-13T08:16:04;5.63;;;3.40;;
3443;SDS011;1736;52.068;6.968;2023-03-13T08:18:32;6.17;;;3.63;;
3443;SDS011;1736;52.068;6.968;2023-03-13T08:21:00;4.87;;;3.87;;
3443;SDS011;1736;52.068;6.968;2023-03-13T08:23:28;4.30;;;3.13;;
3443;SDS011;1736;52.068;6.968;2023-03-13T08:25:54;9.77;;;3.40;;
3443;SDS011;1736;52.068;6.968;2023-03-13T08:28:22;6.63;;;3.60;;
3443;SDS011;1736;52.068;6.968;2023-03-13T08:30:49;11.80;;;4.00;;
3443;SDS011;1736;52.068;6.968;2023-03-13T08:33:15;11.83;;;3.70;;
3443;SDS011;1736;52.068;6.968;2023-03-13T08:35:42;5.60;;;3.50;;
3443;SDS011;1736;52.068;6.968;2023-03-13T08:38:09;4.60;;;3.27;;
3443;SDS011;1736;52.068;6.968;2023-03-13T08:40:35;4.27;;;3.47;;
3443;SDS011;1736;52.068;6.968;2023-03-13T08:43:02;3.40;;;3.00;;
3443;SDS011;1736;52.068;6.968;2023-03-13T08:45:29;5.33;;;3.40;;
3443;SDS011;1736;52.068;6.968;2023-03-13T08:47:56;4.63;;;3.60;;
3443;SDS011;1736;52.068;6.968;2023-03-13T08:50:23;5.23;;;2.87;;
3443;SDS011;1736;52.068;6.968;2023-03-13T08:52:50;5.93;;;3.33;;
3443;SDS011;1736;52.068;6.968;2023-03-13T08:55:16;4.37;;;3.00;;
3443;SDS011;1736;52.068;6.968;2023-03-13T08:57:43;6.80;;;3.37;;
3443;SDS011;1736;52.068;6.968;2023-03-13T09:00:10;8.73;;;3.23;;
3443;SDS011;1736;52.068;6.968;2023-03-13T09:02:40;8.07;;;3.20;;
3443;SDS011;1736;52.068;6.968;2023-03-13T09:05:07;6.80;;;3.37;;
3443;SDS011;1736;52.068;6.968;2023-03-13T09:07:33;4.70;;;3.20;;
3443;SDS011;1736;52.068;6.968;2023-03-13T09:10:00;3.03;;;2.70;;
3443;SDS011;1736;52.068;6.968;2023-03-13T09:12:27;6.57;;;3.43;;
3443;SDS011;1736;52.068;6.968;2023-03-13T09:14:55;6.47;;;3.27;;
3443;SDS011;1736;52.068;6.968;2023-03-13T09:17:21;5.83;;;3.07;;
3443;SDS011;1736;52.068;6.968;2023-03-13T09:19:50;5.67;;;2.97;;
3443;SDS011;1736;52.068;6.968;2023-03-13T09:22:16;6.80;;;4.13;;
3443;SDS011;1736;52.068;6.968;2023-03-13T09:24:43;7.53;;;4.17;;
3443;SDS011;1736;52.068;6.968;2023-03-13T09:27:10;5.90;;;3.37;;
3443;SDS011;1736;52.068;6.968;2023-03-13T09:29:36;4.90;;;2.80;;
3443;SDS011;1736;52.068;6.968;2023-03-13T09:32:05;7.03;;;3.37;;
3443;SDS011;1736;52.068;6.968;2023-03-13T09:34:32;7.40;;;3.70;;
3443;SDS011;1736;52.068;6.968;2023-03-13T09:37:00;5.40;;;3.20;;
3443;SDS011;1736;52.068;6.968;2023-03-13T09:39:27;8.03;;;3.20;;
3443;SDS011;1736;52.068;6.968;2023-03-13T09:41:56;10.87;;;3.07;;
3443;SDS011;1736;52.068;6.968;2023-03-13T09:44:28;6.63;;;3.20;;
3443;SDS011;1736;52.068;6.968;2023-03-13T09:47:02;7.03;;;3.37;;
3443;SDS011;1736;52.068;6.968;2023-03-13T09:49:32;7.63;;;3.00;;
3443;SDS011;1736;52.068;6.968;2023-03-13T09:52:04;6.50;;;3.03;;
3443;SDS011;1736;52.068;6.968;2023-03-13T09:54:40;4.60;;;2.90;;
3443;SDS011;1736;52.068;6.968;2023-03-13T09:57:14;5.27;;;2.87;;
3443;SDS011;1736;52.068;6.968;2023-03-13T09:59:46;7.77;;;2.93;;
3443;SDS011;1736;52.068;6.968;2023-03-13T10:02:23;5.47;;;3.20;;
3443;SDS011;1736;52.068;6.968;2023-03-13T10:04:55;8.30;;;2.90;;
3443;SDS011;1736;52.068;6.968;2023-03-13T10:07:31;5.83;;;3.17;;
3443;SDS011;1736;52.068;6.968;2023-03-13T10:09:59;4.63;;;3.10;;
3443;SDS011;1736;52.068;6.968;2023-03-13T10:12:26;3.00;;;2.80;;
3443;SDS011;1736;52.068;6.968;2023-03-13T10:15:04;8.60;;;3.40;;
3443;SDS011;1736;52.068;6.968;2023-03-13T10:17:46;7.13;;;3.23;;
3443;SDS011;1736;52.068;6.968;2023-03-13T10:20:16;7.43;;;3.20;;
3443;SDS011;1736;52.068;6.968;2023-03-13T10:22:50;7.77;;;3.20;;
3443;SDS011;1736;52.068;6.968;2023-03-13T10:25:27;4.77;;;2.70;;
3443;SDS011;1736;52.068;6.968;2023-03-13T10:27:57;4.30;;;2.87;;
3443;SDS011;1736;52.068;6.968;2023-03-13T10:30:24;8.90;;;2.83;;
3443;SDS011;1736;52.068;6.968;2023-03-13T10:32:53;3.60;;;2.60;;
3443;SDS011;1736;52.068;6.968;2023-03-13T10:35:24;10.50;;;2.73;;
3443;SDS011;1736;52.068;6.968;2023-03-13T10:38:01;5.17;;;2.20;;
3443;SDS011;1736;52.068;6.968;2023-03-13T10:40:30;6.73;;;2.50;;
3443;SDS011;1736;52.068;6.968;2023-03-13T10:43:01;4.60;;;2.27;;
3443;SDS011;1736;52.068;6.968;2023-03-13T10:45:30;3.67;;;2.13;;
3443;SDS011;1736;52.068;6.968;2023-03-13T10:48:00;3.20;;;2.20;;
3443;SDS011;1736;52.068;6.968;2023-03-13T10:50:31;3.20;;;2.10;;
3443;SDS011;1736;52.068;6.968;2023-03-13T10:55:51;3.83;;;2.27;;
3443;SDS011;1736;52.068;6.968;2023-03-13T10:58:21;3.70;;;2.23;;
3443;SDS011;1736;52.068;6.968;2023-03-13T11:00:51;4.63;;;2.40;;
3443;SDS011;1736;52.068;6.968;2023-03-13T11:03:22;3.50;;;2.20;;
3443;SDS011;1736;52.068;6.968;2023-03-13T11:05:55;5.50;;;2.20;;
3443;SDS011;1736;52.068;6.968;2023-03-13T11:08:24;3.33;;;1.97;;
3443;SDS011;1736;52.068;6.968;2023-03-13T11:10:56;3.73;;;2.03;;
3443;SDS011;1736;52.068;6.968;2023-03-13T11:13:27;4.33;;;2.17;;
3443;SDS011;1736;52.068;6.968;2023-03-13T11:15:56;2.97;;;2.03;;
3443;SDS011;1736;52.068;6.968;2023-03-13T11:18:27;2.60;;;2.30;;
3443;SDS011;1736;52.068;6.968;2023-03-13T11:21:02;3.27;;;2.63;;
3443;SDS011;1736;52.068;6.968;2023-03-13T11:23:32;7.73;;;2.33;;
3443;SDS011;1736;52.068;6.968;2023-03-13T11:26:05;5.13;;;2.10;;
3443;SDS011;1736;52.068;6.968;2023-03-13T11:28:43;5.27;;;1.90;;
3443;SDS011;1736;52.068;6.968;2023-03-13T11:31:18;3.97;;;2.10;;
3443;SDS011;1736;52.068;6.968;2023-03-13T11:33:52;7.67;;;1.90;;
3443;SDS011;1736;52.068;6.968;2023-03-13T11:36:25;1.80;;;1.70;;
3443;SDS011;1736;52.068;6.968;2023-03-13T11:39:04;4.10;;;2.10;;
3443;SDS011;1736;52.068;6.968;2023-03-13T11:41:43;2.10;;;1.90;;
3443;SDS011;1736;52.068;6.968;2023-03-13T11:44:27;2.63;;;1.80;;
3443;SDS011;1736;52.068;6.968;2023-03-13T11:47:12;3.10;;;2.00;;
3443;SDS011;1736;52.068;6.968;2023-03-13T11:50:01;1.80;;;1.70;;
3443;SDS011;1736;52.068;6.968;2023-03-13T11:52:51;2.10;;;1.90;;
3443;SDS011;1736;52.068;6.968;2023-03-13T11:55:38;2.50;;;2.00;;
3443;SDS011;1736;52.068;6.968;2023-03-13T11:58:21;3.53;;;1.90;;
3443;SDS011;1736;52.068;6.968;2023-03-13T12:00:58;1.90;;;1.80;;
3443;SDS011;1736;52.068;6.968;2023-03-13T12:03:30;3.13;;;1.63;;
3443;SDS011;1736;52.068;6.968;2023-03-13T12:06:02;1.80;;;1.70;;
3443;SDS011;1736;52.068;6.968;2023-03-13T12:08:38;3.73;;;2.30;;
3443;SDS011;1736;52.068;6.968;2023-03-13T12:11:12;3.47;;;1.77;;
3443;SDS011;1736;52.068;6.968;2023-03-13T12:13:43;8.10;;;2.97;;
3443;SDS011;1736;52.068;6.968;2023-03-13T12:16:14;5.30;;;1.63;;
3443;SDS011;1736;52.068;6.968;2023-03-13T12:18:44;4.50;;;1.87;;
3443;SDS011;1736;52.068;6.968;2023-03-13T12:21:14;2.00;;;1.60;;
3443;SDS011;1736;52.068;6.968;2023-03-13T12:23:46;4.17;;;1.87;;
3443;SDS011;1736;52.068;6.968;2023-03-13T12:26:20;3.00;;;1.80;;
3443;SDS011;1736;52.068;6.968;2023-03-13T12:28:56;5.73;;;2.27;;
3443;SDS011;1736;52.068;6.968;2023-03-13T12:31:32;4.20;;;1.80;;
3443;SDS011;1736;52.068;6.968;2023-03-13T12:34:06;4.90;;;2.00;;
3443;SDS011;1736;52.068;6.968;2023-03-13T12:36:40;2.20;;;2.00;;
3443;SDS011;1736;52.068;6.968;2023-03-13T12:39:16;2.50;;;1.90;;
3443;SDS011;1736;52.068;6.968;2023-03-13T12:41:56;3.87;;;2.13;;
3443;SDS011;1736;52.068;6.968;2023-03-13T12:44:33;5.10;;;1.97;;
3443;SDS011;1736;52.068;6.968;2023-03-13T12:47:03;2.53;;;2.27;;
3443;SDS011;1736;52.068;6.968;2023-03-13T12:49:52;1.93;;;1.80;;
3443;SDS011;1736;52.068;6.968;2023-03-13T12:52:38;3.83;;;2.70;;
3443;SDS011;1736;52.068;6.968;2023-03-13T12:55:37;3.07;;;1.60;;
3443;SDS011;1736;52.068;6.968;2023-03-13T12:58:38;3.10;;;2.00;;
3443;SDS011;1736;52.068;6.968;2023-03-13T13:01:11;1.53;;;1.43;;
3443;SDS011;1736;52.068;6.968;2023-03-13T13:03:45;3.50;;;1.80;;
3443;SDS011;1736;52.068;6.968;2023-03-13T13:06:17;2.50;;;1.80;;
3443;SDS011;1736;52.068;6.968;2023-03-13T13:08:46;3.37;;;1.80;;
3443;SDS011;1736;52.068;6.968;2023-03-13T13:14:02;2.17;;;1.97;;
3443;SDS011;1736;52.068;6.968;2023-03-13T13:16:51;2.30;;;1.60;;
3443;SDS011;1736;52.068;6.968;2023-03-13T13:25:32;10.53;;;1.83;;
3443;SDS011;1736;52.068;6.968;2023-03-13T13:28:10;2.17;;;1.57;;
3443;SDS011;1736;52.068;6.968;2023-03-13T13:30:49;3.07;;;2.10;;
3443;SDS011;1736;52.068;6.968;2023-03-13T13:38:57;1.83;;;1.73;;
3443;SDS011;1736;52.068;6.968;2023-03-13T13:41:34;2.90;;;1.70;;
3443;SDS011;1736;52.068;6.968;2023-03-13T13:44:21;2.77;;;1.80;;
3443;SDS011;1736;52.068;6.968;2023-03-13T13:46:51;1.70;;;1.60;;
3443;SDS011;1736;52.068;6.968;2023-03-13T13:49:20;7.50;;;1.87;;
3443;SDS011;1736;52.068;6.968;2023-03-13T13:54:53;3.00;;;2.00;;
3443;SDS011;1736;52.068;6.968;2023-03-13T13:57:22;4.17;;;1.93;;
3443;SDS011;1736;52.068;6.968;2023-03-13T13:59:50;1.93;;;1.83;;
3443;SDS011;1736;52.068;6.968;2023-03-13T14:02:22;2.60;;;1.83;;
3443;SDS011;1736;52.068;6.968;2023-03-13T14:04:51;1.90;;;1.80;;
3443;SDS011;1736;52.068;6.968;2023-03-13T14:07:23;3.53;;;1.90;;
3443;SDS011;1736;52.068;6.968;2023-03-13T14:10:03;3.23;;;1.67;;
3443;SDS011;1736;52.068;6.968;2023-03-13T14:12:39;5.00;;;1.83;;
3443;SDS011;1736;52.068;6.968;2023-03-13T14:15:12;3.50;;;2.00;;
3443;SDS011;1736;52.068;6.968;2023-03-13T14:17:42;3.53;;;1.87;;
3443;SDS011;1736;52.068;6.968;2023-03-13T14:20:22;2.83;;;1.63;;
3443;SDS011;1736;52.068;6.968;2023-03-13T14:22:52;3.73;;;2.20;;
3443;SDS011;1736;52.068;6.968;2023-03-13T14:25:21;4.30;;;1.70;;
3443;SDS011;1736;52.068;6.968;2023-03-13T14:27:48;5.00;;;1.80;;
3443;SDS011;1736;52.068;6.968;2023-03-13T14:30:20;1.70;;;1.60;;
3443;SDS011;1736;52.068;6.968;2023-03-13T14:32:49;4.30;;;1.90;;
3443;SDS011;1736;52.068;6.968;2023-03-13T14:35:17;3.27;;;1.60;;
3443;SDS011;1736;52.068;6.968;2023-03-13T14:37:47;3.33;;;1.70;;
3443;SDS011;1736;52.068;6.968;2023-03-13T14:40:18;2.53;;;1.83;;
3443;SDS011;1736;52.068;6.968;2023-03-13T14:42:48;1.93;;;1.57;;
3443;SDS011;1736;52.068;6.968;2023-03-13T14:45:21;3.77;;;2.00;;
3443;SDS011;1736;52.068;6.968;2023-03-13T14:47:52;6.43;;;1.93;;
3443;SDS011;1736;52.068;6.968;2023-03-13T14:50:21;1.67;;;1.57;;
3443;SDS011;1736;52.068;6.968;2023-03-13T14:52:50;2.07;;;1.87;;
3443;SDS011;1736;52.068;6.968;2023-03-13T14:55:33;1.90;;;1.70;;
3443;SDS011;1736;52.068;6.968;2023-03-13T14:58:05;3.10;;;1.57;;
3443;SDS011;1736;52.068;6.968;2023-03-13T15:00:52;3.10;;;1.80;;
3443;SDS011;1736;52.068;6.968;2023-03-13T15:03:22;6.63;;;2.30;;
3443;SDS011;1736;52.068;6.968;2023-03-13T15:06:12;1.60;;;1.50;;
3443;SDS011;1736;52.068;6.968;2023-03-13T15:08:42;3.07;;;2.20;;
3443;SDS011;1736;52.068;6.968;2023-03-13T15:11:16;4.07;;;1.77;;
3443;SDS011;1736;52.068;6.968;2023-03-13T15:13:45;4.70;;;1.80;;
3443;SDS011;1736;52.068;6.968;2023-03-13T15:16:12;1.60;;;1.50;;
3443;SDS011;1736;52.068;6.968;2023-03-13T15:18:42;1.50;;;1.40;;
3443;SDS011;1736;52.068;6.968;2023-03-13T15:21:25;2.10;;;1.40;;
3443;SDS011;1736;52.068;6.968;2023-03-13T15:23:54;2.60;;;1.53;;
3443;SDS011;1736;52.068;6.968;2023-03-13T15:26:25;1.63;;;1.53;;
3443;SDS011;1736;52.068;6.968;2023-03-13T15:28:52;1.73;;;1.60;;
3443;SDS011;1736;52.068;6.968;2023-03-13T15:31:19;2.67;;;1.70;;
3443;SDS011;1736;52.068;6.968;2023-03-13T15:33:52;3.20;;;1.40;;
3443;SDS011;1736;52.068;6.968;2023-03-13T15:36:22;1.83;;;1.50;;
3443;SDS011;1736;52.068;6.968;2023-03-13T15:38:48;2.70;;;1.57;;
3443;SDS011;1736;52.068;6.968;2023-03-13T15:41:16;4.40;;;1.40;;
3443;SDS011;1736;52.068;6.968;2023-03-13T15:43:43;1.57;;;1.40;;
3443;SDS011;1736;52.068;6.968;2023-03-13T15:46:09;1.63;;;1.53;;